createdAt,value
2019-04-23T00:01:07.918Z,52.17
2019-04-23T00:03:34.428Z,53.68
2019-04-23T00:06:15.150Z,58.90
2019-04-23T00:08:55.868Z,61.77
2019-04-23T00:11:13.559Z,56.58
2019-04-23T00:13:51.983Z,52.55
2019-04-23T00:16:21.560Z,51.50
2019-04-23T00:18:49.476Z,39.03
2019-04-23T00:21:31.872Z,41.77
2019-04-23T00:24:28.429Z,56.13
2019-04-23T00:31:40.869Z,48.95
2019-04-23T00:34:16.064Z,48.52
2019-04-23T00:36:44.556Z,49.18
2019-04-23T00:39:20.020Z,54.88
2019-04-23T00:41:54.630Z,52.10
2019-04-23T00:44:32.429Z,64.35
2019-04-23T00:46:54.629Z,61.35
2019-04-23T00:49:30.942Z,62.93
2019-04-23T00:52:09.458Z,62.40
2019-04-23T00:54:39.280Z,63.83
2019-04-23T00:57:18.502Z,60.03
2019-04-23T00:59:53.700Z,55.88
2019-04-23T01:02:16.761Z,63.80
2019-04-23T01:04:56.195Z,65.10
2019-04-23T01:07:30.456Z,60.17
2019-04-23T01:10:10.608Z,56.83
2019-04-23T01:15:10.294Z,69.75
2019-04-23T01:17:55.978Z,53.92
2019-04-23T01:20:22.606Z,62.17
2019-04-23T01:22:37.889Z,52.98
2019-04-23T01:25:24.449Z,69.55
2019-04-23T01:28:13.739Z,71.15
2019-04-23T01:30:59.250Z,47.48
2019-04-23T01:36:10.763Z,44.67
2019-04-23T01:38:35.207Z,60.73
2019-04-23T01:41:06.132Z,58.70
2019-04-23T01:46:09.866Z,55.20
2019-04-23T01:48:47.121Z,58.85
2019-04-23T01:51:09.588Z,47.88
2019-04-23T01:54:06.949Z,45.03
2019-04-23T01:56:24.821Z,51.15
2019-04-23T01:58:59.225Z,52.13
2019-04-23T02:01:47.043Z,61.55
2019-04-23T02:04:03.604Z,64.58
2019-04-23T02:06:31.433Z,70.28
2019-04-23T02:09:07.866Z,62.67
2019-04-23T02:11:47.439Z,72.85
2019-04-23T02:14:18.369Z,70.35
2019-04-23T02:16:50.326Z,48.48
2019-04-23T02:19:23.735Z,74.00
2019-04-23T02:22:06.574Z,58.48
2019-04-23T02:24:41.412Z,64.10
2019-04-23T02:27:11.966Z,63.13
2019-04-23T02:35:17.272Z,66.55
2019-04-23T02:37:47.730Z,60.03
2019-04-23T02:42:49.945Z,63.45
2019-04-23T02:45:09.463Z,62.45
2019-04-23T02:47:54.917Z,69.67
2019-04-23T02:50:32.927Z,61.75
2019-04-23T02:52:56.117Z,60.83
2019-04-23T02:55:29.566Z,58.83
2019-04-23T03:00:56.849Z,47.62
2019-04-23T03:05:45.561Z,46.48
2019-04-23T03:08:06.243Z,44.42
2019-04-23T03:13:29.324Z,37.58
2019-04-23T03:21:27.010Z,42.33
2019-04-23T03:24:01.618Z,42.40
2019-04-23T03:27:01.015Z,41.20
2019-04-23T03:39:52.440Z,46.45
2019-04-23T03:47:18.373Z,44.83
2019-04-23T03:50:11.518Z,45.75
2019-04-23T04:00:04.032Z,45.90
2019-04-23T04:05:04.059Z,44.45
2019-04-23T04:07:46.957Z,43.73
2019-04-23T04:10:09.090Z,43.87
2019-04-23T04:12:39.804Z,51.00
2019-04-23T04:18:03.830Z,44.75
2019-04-23T04:20:33.088Z,46.08
2019-04-23T04:23:07.767Z,46.55
2019-04-23T04:25:33.658Z,48.08
2019-04-23T04:33:41.443Z,49.25
2019-04-23T04:36:00.739Z,49.20
2019-04-23T04:41:04.265Z,49.05
2019-04-23T04:43:41.669Z,51.73
2019-04-23T04:46:27.482Z,42.78
2019-04-23T04:48:40.192Z,40.43
2019-04-23T04:59:00.270Z,35.33
2019-04-23T05:01:22.303Z,36.17
2019-04-23T05:03:54.867Z,35.13
2019-04-23T05:06:39.120Z,35.48
2019-04-23T05:09:19.509Z,34.30
2019-04-23T05:11:45.795Z,31.40
2019-04-23T05:14:05.883Z,32.83
2019-04-23T05:16:47.263Z,31.57
2019-04-23T05:20:02.049Z,34.10
2019-04-23T05:21:54.325Z,31.87
2019-04-23T05:24:31.840Z,32.45
2019-04-23T05:26:56.903Z,31.97
2019-04-23T05:29:27.605Z,32.48
2019-04-23T05:31:59.325Z,29.87
2019-04-23T05:34:36.153Z,29.25
2019-04-23T05:37:04.985Z,28.73
2019-04-23T05:39:44.525Z,28.02
2019-04-23T05:42:13.715Z,28.07
2019-04-23T05:47:20.331Z,25.80
2019-04-23T05:49:51.760Z,27.65
2019-04-23T05:52:32.678Z,27.42
2019-04-23T05:55:01.542Z,26.40
2019-04-23T05:57:34.595Z,27.80
2019-04-23T06:02:48.595Z,27.73
2019-04-23T06:05:22.474Z,27.62
2019-04-23T06:08:01.205Z,29.90
2019-04-23T06:10:29.026Z,30.12
2019-04-23T06:12:57.739Z,32.25
2019-04-23T06:15:32.441Z,31.42
2019-04-23T06:18:12.488Z,32.98
2019-04-23T06:20:50.328Z,33.02
2019-04-23T06:23:25.021Z,31.37
2019-04-23T06:25:57.270Z,30.82
2019-04-23T06:28:25.730Z,29.10
2019-04-23T06:33:25.951Z,31.75
2019-04-23T06:36:05.509Z,29.35
2019-04-23T06:38:54.535Z,28.17
2019-04-23T06:41:09.931Z,28.42
2019-04-23T06:43:54.672Z,30.05
2019-04-23T06:46:21.354Z,29.98
2019-04-23T06:48:47.131Z,28.77
2019-04-23T06:51:27.160Z,29.75
2019-04-23T06:53:57.804Z,30.23
2019-04-23T06:56:35.190Z,29.65
2019-04-23T06:59:06.326Z,28.52
2019-04-23T07:01:46.354Z,29.32
2019-04-23T07:04:10.629Z,30.25
2019-04-23T07:06:46.939Z,28.42
2019-04-23T07:11:51.380Z,28.52
2019-04-23T07:14:24.408Z,28.10
2019-04-23T07:16:57.067Z,29.77
2019-04-23T07:19:31.840Z,27.00
2019-04-23T07:22:09.992Z,28.67
2019-04-23T07:24:36.254Z,26.85
2019-04-23T07:27:11.735Z,27.25
2019-04-23T07:29:43.518Z,25.57
2019-04-23T07:32:11.120Z,28.23
2019-04-23T07:34:55.299Z,26.05
2019-04-23T07:37:22.962Z,24.40
2019-04-23T07:40:21.496Z,28.02
2019-04-23T07:42:39.106Z,25.70
2019-04-23T07:45:26.084Z,24.35
2019-04-23T07:50:46.032Z,22.60
2019-04-23T07:55:58.607Z,22.50
2019-04-23T07:58:27.329Z,19.75
2019-04-23T08:03:30.687Z,20.08
2019-04-23T08:06:00.572Z,18.50
2019-04-23T08:08:36.431Z,19.65
2019-04-23T08:11:33.140Z,18.73
2019-04-23T08:13:55.635Z,18.95
2019-04-23T08:16:28.176Z,17.50
2019-04-23T08:18:55.635Z,17.30
2019-04-23T08:21:25.766Z,18.55
2019-04-23T08:24:06.550Z,18.17
2019-04-23T08:26:54.413Z,18.42
2019-04-23T08:29:25.113Z,19.10
2019-04-23T08:37:08.712Z,16.80
2019-04-23T08:45:07.529Z,17.00
2019-04-23T08:47:52.500Z,17.45
2019-04-23T08:50:15.398Z,16.97
2019-04-23T08:52:45.924Z,18.77
2019-04-23T08:55:21.121Z,16.75
2019-04-23T08:57:52.060Z,17.12
2019-04-23T09:00:25.711Z,17.27
2019-04-23T09:03:00.632Z,16.90
2019-04-23T09:08:25.273Z,18.55
2019-04-23T09:10:50.093Z,19.35
2019-04-23T09:13:39.977Z,18.92
2019-04-23T09:15:51.091Z,18.17
2019-04-23T09:18:35.173Z,17.17
2019-04-23T09:20:47.973Z,18.05
2019-04-23T09:25:57.822Z,17.25
2019-04-23T09:28:39.941Z,16.82
2019-04-23T09:36:25.515Z,17.42
2019-04-23T09:39:01.332Z,17.80
2019-04-23T09:41:39.909Z,17.23
2019-04-23T09:49:44.373Z,16.90
2019-04-23T09:52:14.676Z,18.42
2019-04-23T09:55:05.996Z,16.82
2019-04-23T09:57:17.146Z,19.70
2019-04-23T09:59:52.349Z,18.15
2019-04-23T10:02:19.389Z,18.85
2019-04-23T10:04:48.297Z,19.27
2019-04-23T10:07:21.031Z,19.87
2019-04-23T10:09:40.637Z,19.75
2019-04-23T10:12:13.168Z,18.75
2019-04-23T10:14:55.113Z,20.37
2019-04-23T10:17:19.929Z,19.77
2019-04-23T10:19:53.002Z,20.05
2019-04-23T10:22:25.158Z,19.48
2019-04-23T10:24:59.419Z,19.23
2019-04-23T10:27:32.518Z,20.90
2019-04-23T10:30:06.106Z,18.77
2019-04-23T10:35:22.315Z,18.10
2019-04-23T10:37:52.948Z,18.98
2019-04-23T10:40:25.483Z,18.92
2019-04-23T10:42:53.769Z,18.45
2019-04-23T10:45:47.926Z,18.65
2019-04-23T10:48:49.483Z,19.57
2019-04-23T10:51:28.719Z,18.87
2019-04-23T10:54:10.035Z,18.32
2019-04-23T10:56:36.117Z,18.05
2019-04-23T10:59:06.111Z,19.10
2019-04-23T11:01:35.873Z,18.48
2019-04-23T11:04:32.963Z,19.12
2019-04-23T11:12:24.157Z,20.12
2019-04-23T11:14:52.278Z,18.93
2019-04-23T11:17:32.979Z,18.30
2019-04-23T11:20:09.690Z,17.82
2019-04-23T11:25:15.903Z,18.62
2019-04-23T11:27:36.239Z,18.45
2019-04-23T11:30:20.130Z,19.15
2019-04-23T11:32:55.564Z,18.77
2019-04-23T11:35:33.991Z,17.85
2019-04-23T11:40:35.647Z,18.30
2019-04-23T11:43:22.745Z,17.52
2019-04-23T11:53:39.094Z,16.97
2019-04-23T11:56:02.793Z,16.23
2019-04-23T11:58:39.257Z,17.15
2019-04-23T12:01:38.538Z,17.27
2019-04-23T12:06:54.371Z,17.82
2019-04-23T12:09:53.835Z,16.90
2019-04-23T12:12:17.161Z,17.32
2019-04-23T12:14:47.968Z,18.07
2019-04-23T12:17:26.008Z,17.02
2019-04-23T12:20:03.354Z,17.67
2019-04-23T12:22:53.239Z,17.10
2019-04-23T12:25:32.794Z,17.25
2019-04-23T12:27:39.827Z,17.12
2019-04-23T12:30:27.760Z,17.12
2019-04-23T12:33:12.989Z,16.87
2019-04-23T12:35:25.696Z,17.50
2019-04-23T12:38:17.205Z,16.52
2019-04-23T12:53:32.052Z,19.10
2019-04-23T12:56:03.743Z,16.17
2019-04-23T13:01:05.345Z,17.20
2019-04-23T13:03:45.814Z,17.45
2019-04-23T13:11:23.634Z,16.85
2019-04-23T13:14:00.412Z,16.10
2019-04-23T13:16:39.897Z,15.60
2019-04-23T13:18:58.157Z,16.52
2019-04-23T13:21:51.780Z,16.45
2019-04-23T13:26:37.965Z,17.23
2019-04-23T13:29:18.840Z,19.07
2019-04-23T13:34:22.562Z,16.67
2019-04-23T13:39:38.903Z,16.45
2019-04-23T13:42:06.993Z,16.87
2019-04-23T13:44:42.400Z,16.67
2019-04-23T13:47:25.034Z,16.93
2019-04-23T13:52:43.046Z,16.52
2019-04-23T13:55:04.348Z,16.15
2019-04-23T13:59:55.949Z,16.05
2019-04-23T14:02:37.201Z,16.85
2019-04-23T14:05:14.165Z,16.70
2019-04-23T14:07:52.591Z,15.75
2019-04-23T14:10:36.645Z,17.02
2019-04-23T14:13:10.508Z,17.00
2019-04-23T14:15:42.639Z,16.42
2019-04-23T14:18:36.752Z,17.85
2019-04-23T14:23:13.012Z,16.45
2019-04-23T14:30:57.471Z,18.00
2019-04-23T14:33:30.445Z,20.65
2019-04-23T14:38:40.093Z,17.30
2019-04-23T14:54:12.982Z,16.10
2019-04-23T14:56:39.512Z,15.30
2019-04-23T14:59:07.783Z,15.90
2019-04-23T15:04:11.035Z,16.23
2019-04-23T15:12:02.059Z,16.60
2019-04-23T15:14:38.031Z,17.23
2019-04-23T15:25:15.345Z,15.72
2019-04-23T15:29:48.151Z,17.07
2019-04-23T15:32:39.273Z,16.90
2019-04-23T15:35:18.395Z,17.37
2019-04-23T15:40:18.276Z,17.98
2019-04-23T15:42:52.096Z,15.75
2019-04-23T15:45:15.113Z,16.05
2019-04-23T15:48:00.488Z,18.62
2019-04-23T15:50:27.124Z,16.67
2019-04-23T15:55:27.571Z,14.80
2019-04-23T16:00:38.834Z,16.45
2019-04-23T16:02:44.400Z,16.10
2019-04-23T16:05:18.457Z,17.20
2019-04-23T16:10:54.714Z,15.28
2019-04-23T16:13:31.138Z,18.55
2019-04-23T16:16:03.390Z,17.45
2019-04-23T16:18:47.896Z,17.57
2019-04-23T16:21:26.846Z,18.20
2019-04-23T16:23:42.224Z,16.85
2019-04-23T16:26:17.328Z,17.02
2019-04-23T16:29:06.630Z,16.20
2019-04-23T16:31:33.505Z,17.62
2019-04-23T16:34:14.129Z,19.85
2019-04-23T16:36:32.520Z,17.65
2019-04-23T16:39:10.527Z,17.98
2019-04-23T16:41:51.979Z,19.87
2019-04-23T16:49:24.865Z,16.95
2019-04-23T16:54:32.916Z,18.73
2019-04-23T16:59:36.531Z,17.55
2019-04-23T17:02:17.501Z,17.30
2019-04-23T17:09:51.207Z,16.17
2019-04-23T17:14:57.252Z,16.70
2019-04-23T17:17:19.147Z,16.82
2019-04-23T17:20:02.658Z,17.67
2019-04-23T17:22:33.865Z,17.77
2019-04-23T17:25:15.241Z,17.07
2019-04-23T17:27:51.129Z,17.02
2019-04-23T17:30:11.490Z,17.37
2019-04-23T17:32:55.875Z,17.27
2019-04-23T17:35:24.389Z,17.60
2019-04-23T17:38:00.421Z,26.93
2019-04-23T17:40:24.577Z,24.80
2019-04-23T17:43:05.856Z,23.38
2019-04-23T17:45:35.589Z,22.30
2019-04-23T17:48:15.794Z,22.90
2019-04-23T17:50:56.782Z,45.95
2019-04-23T17:53:29.716Z,26.93
2019-04-23T17:58:43.996Z,26.15
2019-04-23T18:06:30.038Z,25.35
2019-04-23T18:09:00.525Z,25.08
2019-04-23T18:11:40.138Z,25.72
2019-04-23T18:14:03.884Z,25.68
2019-04-23T18:16:41.073Z,26.57
2019-04-23T18:22:01.807Z,29.32
2019-04-23T18:24:23.225Z,27.52
2019-04-23T18:27:00.984Z,28.55
2019-04-23T18:32:11.544Z,28.90
2019-04-23T18:34:53.882Z,28.80
2019-04-23T18:37:19.339Z,28.30
2019-04-23T18:42:25.768Z,28.70
2019-04-23T18:50:22.965Z,28.55
2019-04-23T18:55:48.761Z,25.52
2019-04-23T18:58:06.027Z,31.97
2019-04-23T19:00:53.264Z,38.10
2019-04-23T19:03:25.548Z,46.18
2019-04-23T19:06:18.665Z,36.65
2019-04-23T19:14:18.737Z,48.73
2019-04-23T19:16:54.494Z,31.82
2019-04-23T19:19:20.135Z,36.95
2019-04-23T19:22:12.415Z,32.70
2019-04-23T19:24:28.558Z,22.73
2019-04-23T19:34:39.356Z,75.90
2019-04-23T19:37:44.440Z,31.48
2019-04-23T19:39:45.345Z,29.15
2019-04-23T19:42:44.782Z,32.42
2019-04-23T19:44:51.179Z,33.18
2019-04-23T19:49:55.164Z,15.95
2019-04-23T19:52:51.819Z,19.95
2019-04-23T19:55:21.127Z,17.80
2019-04-23T19:57:45.526Z,30.95
2019-04-23T20:00:13.071Z,19.00
2019-04-23T20:03:03.246Z,15.48
2019-04-23T20:05:41.378Z,16.97
2019-04-23T20:08:08.718Z,14.07
2019-04-23T20:10:30.074Z,14.25
2019-04-23T20:12:54.574Z,35.08
2019-04-23T20:15:41.132Z,42.43
2019-04-23T20:18:00.413Z,24.30
2019-04-23T20:20:45.426Z,19.42
2019-04-23T20:23:26.527Z,20.12
2019-04-23T20:26:12.189Z,35.65
2019-04-23T20:28:48.898Z,26.62
2019-04-23T20:33:59.956Z,18.87
2019-04-23T20:36:26.128Z,21.65
2019-04-23T20:38:54.830Z,16.55
2019-04-23T20:41:32.521Z,17.48
2019-04-23T20:44:06.275Z,23.20
2019-04-23T20:46:40.165Z,17.50
2019-04-23T20:49:00.511Z,19.45
2019-04-23T20:51:47.170Z,24.00
2019-04-23T20:54:12.356Z,28.80
2019-04-23T20:56:56.328Z,28.35
2019-04-23T20:59:16.185Z,29.42
2019-04-23T21:02:06.280Z,24.45
2019-04-23T21:04:29.755Z,24.82
2019-04-23T21:07:12.106Z,25.25
2019-04-23T21:09:51.547Z,24.12
2019-04-23T21:12:15.924Z,23.20
2019-04-23T21:17:20.772Z,21.37
2019-04-23T21:19:59.801Z,19.15
2019-04-23T21:22:20.514Z,18.60
2019-04-23T21:24:51.540Z,22.40
2019-04-23T21:30:08.563Z,20.35
2019-04-23T21:32:53.808Z,17.90
2019-04-23T21:35:43.006Z,17.23
2019-04-23T21:37:54.227Z,16.55
2019-04-23T21:43:36.090Z,14.63
2019-04-23T21:45:59.993Z,15.48
2019-04-23T21:48:27.533Z,15.85
2019-04-23T21:50:58.009Z,14.70
2019-04-23T21:53:25.247Z,15.65
2019-04-23T21:56:06.988Z,14.85
2019-04-23T21:58:46.549Z,14.35
2019-04-23T22:01:21.218Z,14.38
2019-04-23T22:06:31.517Z,17.85
2019-04-23T22:08:57.732Z,18.73
2019-04-23T22:11:53.734Z,16.57
2019-04-23T22:16:41.021Z,17.37
2019-04-23T22:19:15.473Z,17.40
2019-04-23T22:26:57.680Z,18.77
2019-04-23T22:31:51.122Z,17.30
2019-04-23T22:34:34.070Z,17.45
2019-04-23T22:39:39.902Z,17.25
2019-04-23T22:44:59.097Z,16.87
2019-04-23T22:47:14.088Z,16.70
2019-04-23T22:55:02.293Z,15.45
2019-04-23T22:57:56.681Z,14.43
2019-04-23T23:00:14.608Z,15.68
2019-04-23T23:03:06.429Z,16.87
2019-04-23T23:10:38.197Z,18.20
2019-04-23T23:13:12.041Z,16.07
2019-04-23T23:15:51.411Z,14.15
2019-04-23T23:18:17.714Z,15.50
2019-04-23T23:20:57.596Z,14.00
2019-04-23T23:23:21.442Z,15.20
2019-04-23T23:33:40.356Z,14.50
2019-04-23T23:36:17.981Z,14.87
2019-04-23T23:38:50.802Z,15.78
2019-04-23T23:41:19.905Z,16.95
2019-04-23T23:44:06.075Z,17.65
2019-04-23T23:46:29.613Z,18.12
2019-04-23T23:48:56.971Z,17.82
2019-04-23T23:51:29.156Z,19.10
2019-04-23T23:54:08.754Z,19.32
2019-04-23T23:59:10.674Z,18.80
